createdAt,value
2023-01-30T00:01:18.724Z,100789.28
2023-01-30T00:03:48.935Z,100795.88
2023-01-30T00:06:20.164Z,100778.03
2023-01-30T00:08:50.626Z,100776.78
2023-01-30T00:11:21.915Z,100771.03
2023-01-30T00:13:52.199Z,100758.50
2023-01-30T00:16:22.422Z,100745.63
2023-01-30T00:18:52.539Z,100737.22
2023-01-30T00:21:22.579Z,100738.25
2023-01-30T00:23:52.639Z,100730.94
2023-01-30T00:26:22.737Z,100727.06
2023-01-30T00:28:52.847Z,100726.59
2023-01-30T00:31:23.134Z,100712.63
2023-01-30T00:33:53.193Z,100696.56
2023-01-30T00:36:23.360Z,100687.91
2023-01-30T00:38:51.792Z,100672.69
2023-01-30T00:41:21.913Z,100659.75
2023-01-30T00:44:21.261Z,100651.06
2023-01-30T00:47:06.380Z,100628.19
2023-01-30T00:49:38.377Z,100619.41
2023-01-30T00:52:08.218Z,100608.66
2023-01-30T00:54:36.323Z,100591.91
2023-01-30T00:57:04.752Z,100570.53
2023-01-30T00:59:33.077Z,100560.03
2023-01-30T01:02:01.598Z,100564.84
2023-01-30T01:04:30.027Z,100563.19
2023-01-30T01:06:58.749Z,100554.28
2023-01-30T01:09:28.780Z,100560.03
2023-01-30T01:11:58.810Z,100563.03
2023-01-30T01:14:29.088Z,100565.66
2023-01-30T01:16:59.459Z,100558.00
2023-01-30T01:19:28.033Z,100561.88
2023-01-30T01:21:56.343Z,100546.69
2023-01-30T01:24:24.739Z,100533.16
2023-01-30T01:26:53.628Z,100502.38
2023-01-30T01:29:21.712Z,100494.75
2023-01-30T01:31:51.619Z,100504.03
2023-01-30T01:34:19.705Z,100501.25
2023-01-30T01:36:53.498Z,100493.94
2023-01-30T01:39:24.694Z,100501.84
2023-01-30T01:41:54.427Z,100499.63
2023-01-30T01:44:25.717Z,100489.97
2023-01-30T01:47:00.555Z,100507.31
2023-01-30T01:49:37.608Z,100518.44
2023-01-30T01:52:17.633Z,100521.44
2023-01-30T01:55:05.150Z,100523.63
2023-01-30T01:57:56.427Z,100513.00
2023-01-30T02:00:27.551Z,100504.63
2023-01-30T02:03:19.547Z,100502.22
2023-01-30T02:05:58.980Z,100487.53
2023-01-30T02:08:50.406Z,100459.25
2023-01-30T02:12:01.318Z,100455.25
2023-01-30T02:14:37.417Z,100436.94
2023-01-30T02:17:07.662Z,100430.16
2023-01-30T02:20:40.396Z,100427.59
2023-01-30T02:23:49.530Z,100406.03
2023-01-30T02:26:55.171Z,100401.06
2023-01-30T02:30:07.316Z,100384.44
2023-01-30T02:33:35.758Z,100384.09
2023-01-30T02:36:44.960Z,100377.56
2023-01-30T02:40:11.005Z,100375.06
2023-01-30T02:44:00.150Z,100375.78
2023-01-30T02:46:45.979Z,100372.56
2023-01-30T02:49:38.507Z,100362.44
2023-01-30T02:52:12.419Z,100359.09
2023-01-30T02:54:42.408Z,100342.56
2023-01-30T02:57:26.420Z,100355.25
2023-01-30T03:00:06.455Z,100330.38
2023-01-30T03:03:18.692Z,100314.78
2023-01-30T03:06:39.518Z,100309.19
2023-01-30T03:09:58.221Z,100297.88
2023-01-30T03:12:57.940Z,100299.97
2023-01-30T03:15:50.893Z,100284.50
2023-01-30T03:18:22.497Z,100291.63
2023-01-30T03:20:52.900Z,100283.19
2023-01-30T03:23:23.262Z,100273.97
2023-01-30T03:25:53.396Z,100265.19
2023-01-30T03:28:24.084Z,100250.78
2023-01-30T03:30:54.228Z,100255.09
2023-01-30T03:33:24.426Z,100247.75
2023-01-30T03:35:54.898Z,100249.41
2023-01-30T03:38:25.129Z,100252.66
2023-01-30T03:40:55.359Z,100255.97
2023-01-30T03:43:25.410Z,100253.50
2023-01-30T03:45:55.612Z,100247.78
2023-01-30T03:48:25.659Z,100239.09
2023-01-30T03:50:56.691Z,100231.78
2023-01-30T03:53:26.759Z,100225.22
2023-01-30T03:55:56.830Z,100224.66
2023-01-30T03:58:26.900Z,100214.88
2023-01-30T04:00:57.639Z,100213.22
2023-01-30T04:03:30.505Z,100212.69
2023-01-30T04:06:00.590Z,100213.00
2023-01-30T04:08:30.642Z,100212.16
2023-01-30T04:11:00.888Z,100184.03
2023-01-30T04:13:30.945Z,100175.81
2023-01-30T04:16:24.864Z,100178.84
2023-01-30T04:18:55.016Z,100177.22
2023-01-30T04:21:23.723Z,100167.09
2023-01-30T04:23:52.243Z,100173.69
2023-01-30T04:26:20.780Z,100169.59
2023-01-30T04:28:49.185Z,100170.44
2023-01-30T04:31:17.754Z,100154.84
2023-01-30T04:33:46.203Z,100162.53
2023-01-30T04:36:14.690Z,100158.16
2023-01-30T04:38:42.940Z,100158.41
2023-01-30T04:41:11.321Z,100150.78
2023-01-30T04:43:39.690Z,100160.59
2023-01-30T04:46:08.360Z,100150.22
2023-01-30T04:48:36.748Z,100160.34
2023-01-30T04:51:05.801Z,100144.50
2023-01-30T04:53:33.664Z,100136.03
2023-01-30T04:56:02.271Z,100127.53
2023-01-30T04:58:30.813Z,100123.72
2023-01-30T05:01:37.158Z,100115.53
2023-01-30T05:04:08.590Z,100120.44
2023-01-30T05:06:38.722Z,100111.41
2023-01-30T05:09:08.806Z,100108.97
2023-01-30T05:11:38.439Z,100098.03
2023-01-30T05:14:05.681Z,100092.88
2023-01-30T05:16:34.504Z,100087.41
2023-01-30T05:19:02.453Z,100086.84
2023-01-30T05:21:30.965Z,100085.50
2023-01-30T05:23:59.287Z,100077.59
2023-01-30T05:26:27.837Z,100077.59
2023-01-30T05:28:58.515Z,100078.94
2023-01-30T05:31:27.630Z,100080.84
2023-01-30T05:33:55.921Z,100081.94
2023-01-30T05:36:24.824Z,100070.75
2023-01-30T05:38:52.833Z,100069.69
2023-01-30T05:41:21.182Z,100070.22
2023-01-30T05:43:51.403Z,100059.03
2023-01-30T05:46:21.596Z,100061.22
2023-01-30T05:48:51.708Z,100052.47
2023-01-30T05:51:28.037Z,100049.75
2023-01-30T05:53:58.132Z,100039.66
2023-01-30T05:56:28.339Z,100040.47
2023-01-30T05:58:58.826Z,100029.81
2023-01-30T06:01:30.632Z,100020.81
2023-01-30T06:04:00.883Z,100009.88
2023-01-30T06:06:31.007Z,100012.88
2023-01-30T06:09:01.135Z,100018.34
2023-01-30T06:11:31.208Z,100006.63
2023-01-30T06:14:01.274Z,100005.25
2023-01-30T06:16:31.362Z,100010.72
2023-01-30T06:19:01.427Z,99999.78
2023-01-30T06:21:32.136Z,100012.06
2023-01-30T06:24:02.520Z,100007.44
2023-01-30T06:26:32.612Z,99995.16
2023-01-30T06:29:02.660Z,100003.06
2023-01-30T06:31:32.851Z,100004.41
2023-01-30T06:34:03.131Z,100006.56
2023-01-30T06:36:33.379Z,100004.94
2023-01-30T06:39:04.073Z,100003.84
2023-01-30T06:41:34.167Z,100009.53
2023-01-30T06:44:04.399Z,100014.47
2023-01-30T06:46:34.481Z,100018.50
2023-01-30T06:49:04.630Z,100007.91
2023-01-30T06:51:34.663Z,100019.91
2023-01-30T06:54:05.005Z,100005.97
2023-01-30T06:56:35.034Z,100004.66
2023-01-30T06:59:05.105Z,100009.84
2023-01-30T07:01:33.776Z,100010.91
2023-01-30T07:04:03.887Z,100013.94
2023-01-30T07:06:32.548Z,99999.13
2023-01-30T07:09:01.002Z,99996.13
2023-01-30T07:11:29.550Z,99992.50
2023-01-30T07:13:59.653Z,99981.25
2023-01-30T07:16:29.578Z,99973.97
2023-01-30T07:18:59.710Z,99976.66
2023-01-30T07:21:28.243Z,99979.69
2023-01-30T07:23:56.518Z,99976.66
2023-01-30T07:26:25.613Z,99970.13
2023-01-30T07:28:53.418Z,99973.13
2023-01-30T07:31:21.961Z,99956.97
2023-01-30T07:33:51.932Z,99962.44
2023-01-30T07:36:21.777Z,99968.72
2023-01-30T07:38:51.362Z,99978.25
2023-01-30T07:41:21.183Z,99965.38
2023-01-30T07:43:51.029Z,99965.81
2023-01-30T07:46:20.745Z,99961.47
2023-01-30T07:48:50.523Z,99971.56
2023-01-30T07:51:20.174Z,99982.50
2023-01-30T07:53:51.346Z,99977.81
2023-01-30T07:56:23.638Z,99982.16
2023-01-30T07:58:56.626Z,99981.91
2023-01-30T08:01:24.781Z,99989.25
2023-01-30T08:03:54.692Z,99993.06
2023-01-30T08:06:24.532Z,99992.00
2023-01-30T08:08:54.272Z,99990.06
2023-01-30T08:11:24.077Z,99981.00
2023-01-30T08:13:53.837Z,99983.50
2023-01-30T08:16:23.696Z,99989.41
2023-01-30T08:18:53.496Z,99984.41
2023-01-30T08:21:21.972Z,99981.69
2023-01-30T08:23:50.994Z,99981.41
2023-01-30T08:26:18.818Z,99979.69
2023-01-30T08:28:47.624Z,99986.53
2023-01-30T08:31:19.105Z,99983.81
2023-01-30T08:33:48.157Z,99980.00
2023-01-30T08:36:16.922Z,99972.59
2023-01-30T08:38:45.294Z,99962.31
2023-01-30T08:41:13.816Z,99962.03
2023-01-30T08:43:42.145Z,99964.44
2023-01-30T08:46:10.837Z,99963.56
2023-01-30T08:48:49.435Z,99964.72
2023-01-30T08:51:20.080Z,99961.94
2023-01-30T08:53:49.871Z,99963.28
2023-01-30T08:56:20.545Z,99965.66
2023-01-30T08:58:50.393Z,99957.91
2023-01-30T09:01:20.445Z,99958.91
2023-01-30T09:03:50.134Z,99969.47
2023-01-30T09:06:19.786Z,99962.94
2023-01-30T09:08:49.537Z,99958.84
2023-01-30T09:11:19.495Z,99967.72
2023-01-30T09:13:49.910Z,99972.59
2023-01-30T09:16:20.092Z,99966.25
2023-01-30T09:18:48.423Z,99970.19
2023-01-30T09:21:16.923Z,99965.63
2023-01-30T09:23:44.309Z,99964.75
2023-01-30T09:26:11.703Z,99950.63
2023-01-30T09:28:39.547Z,99961.94
2023-01-30T09:31:07.697Z,99964.16
2023-01-30T09:33:36.004Z,99978.31
2023-01-30T09:36:04.910Z,99972.50
2023-01-30T09:38:32.870Z,99989.53
2023-01-30T09:41:15.289Z,99987.13
2023-01-30T09:44:16.273Z,99989.16
2023-01-30T09:47:12.096Z,99976.41
2023-01-30T09:50:19.775Z,99979.38
2023-01-30T09:53:13.021Z,99976.84
2023-01-30T09:55:44.306Z,99977.19
2023-01-30T09:58:22.734Z,99979.13
2023-01-30T10:01:12.215Z,99974.06
2023-01-30T10:04:23.208Z,99984.38
2023-01-30T10:07:25.780Z,99988.72
2023-01-30T10:10:35.426Z,99980.28
2023-01-30T10:13:50.627Z,99984.66
2023-01-30T10:17:32.652Z,99971.31
2023-01-30T10:20:32.628Z,99972.47
2023-01-30T10:23:36.589Z,99978.53
2023-01-30T10:26:22.027Z,99967.16
2023-01-30T10:29:20.297Z,99971.16
2023-01-30T10:32:08.152Z,99971.03
2023-01-30T10:34:55.353Z,99968.56
2023-01-30T10:37:39.033Z,99960.28
2023-01-30T10:40:49.312Z,99968.69
2023-01-30T10:43:45.417Z,99962.44
2023-01-30T10:46:48.886Z,99960.00
2023-01-30T10:49:47.271Z,99955.19
2023-01-30T10:52:39.591Z,99953.84
2023-01-30T10:55:48.432Z,99950.16
2023-01-30T10:58:30.875Z,99943.91
2023-01-30T11:01:26.199Z,99942.56
2023-01-30T11:04:45.392Z,99955.09
2023-01-30T11:07:15.957Z,99935.22
2023-01-30T11:09:49.439Z,99942.19
2023-01-30T11:12:19.140Z,99939.66
2023-01-30T11:15:00.845Z,99942.47
2023-01-30T11:17:45.277Z,99940.69
2023-01-30T11:20:24.585Z,99942.91
2023-01-30T11:23:08.763Z,99935.16
2023-01-30T11:26:10.352Z,99932.09
2023-01-30T11:28:48.666Z,99923.66
2023-01-30T11:31:40.574Z,99912.56
2023-01-30T11:34:19.078Z,99908.88
2023-01-30T11:36:50.152Z,99892.97
2023-01-30T11:39:28.714Z,99897.03
2023-01-30T11:42:06.140Z,99881.78
2023-01-30T11:44:42.715Z,99873.34
2023-01-30T11:47:31.997Z,99880.91
2023-01-30T11:50:25.818Z,99873.75
2023-01-30T11:52:55.739Z,99861.75
2023-01-30T11:55:24.858Z,99861.91
2023-01-30T11:57:59.787Z,99853.22
2023-01-30T12:00:43.153Z,99869.72
2023-01-30T12:03:23.520Z,99840.16
2023-01-30T12:05:52.061Z,99853.94
2023-01-30T12:08:39.424Z,99845.56
2023-01-30T12:11:35.342Z,99827.59
2023-01-30T12:14:46.026Z,99833.19
2023-01-30T12:17:46.318Z,99822.78
2023-01-30T12:21:02.318Z,99839.13
2023-01-30T12:24:08.622Z,99840.06
2023-01-30T12:26:52.205Z,99830.38
2023-01-30T12:30:12.593Z,99822.28
2023-01-30T12:32:42.696Z,99836.59
2023-01-30T12:35:20.975Z,99824.13
2023-01-30T12:38:03.333Z,99826.69
2023-01-30T12:41:14.819Z,99829.22
2023-01-30T12:44:06.333Z,99808.56
2023-01-30T12:47:25.049Z,99806.63
2023-01-30T12:50:47.153Z,99811.34
2023-01-30T12:53:52.960Z,99806.31
2023-01-30T12:57:29.575Z,99808.75
2023-01-30T13:00:17.673Z,99798.50
2023-01-30T13:03:19.870Z,99793.81
2023-01-30T13:06:46.809Z,99817.72
2023-01-30T13:09:51.024Z,99810.22
2023-01-30T13:12:53.804Z,99815.88
2023-01-30T13:16:07.883Z,99797.91
2023-01-30T13:19:07.585Z,99810.84
2023-01-30T13:22:01.004Z,99809.06
2023-01-30T13:25:23.899Z,99801.31
2023-01-30T13:28:18.265Z,99805.31
2023-01-30T13:30:52.713Z,99797.59
2023-01-30T13:33:36.983Z,99804.44
2023-01-30T13:36:19.612Z,99795.78
2023-01-30T13:42:45.913Z,99775.22
2023-01-30T13:45:40.159Z,99779.97
2023-01-30T13:48:55.070Z,99788.00
2023-01-30T13:51:39.712Z,99789.75
2023-01-30T13:55:01.188Z,99779.91
2023-01-30T13:57:50.674Z,99789.66
2023-01-30T14:00:37.012Z,99769.63
2023-01-30T14:03:06.944Z,99752.84
2023-01-30T14:05:52.210Z,99778.72
2023-01-30T14:08:28.435Z,99783.81
2023-01-30T14:10:59.709Z,99790.44
2023-01-30T14:13:31.321Z,99785.50
2023-01-30T14:16:07.036Z,99823.72
2023-01-30T14:18:38.862Z,99817.69
2023-01-30T14:21:25.974Z,99837.78
2023-01-30T14:24:05.684Z,99835.31
2023-01-30T14:26:50.707Z,99840.75
2023-01-30T14:29:38.756Z,99852.28
2023-01-30T14:32:15.574Z,99879.84
2023-01-30T14:35:05.125Z,99876.19
2023-01-30T14:37:38.066Z,99888.56
2023-01-30T14:40:23.382Z,99925.41
2023-01-30T14:43:12.127Z,99897.19
2023-01-30T14:46:08.927Z,99904.19
2023-01-30T14:48:56.737Z,99917.63
2023-01-30T14:51:47.977Z,99941.72
2023-01-30T14:54:17.829Z,99935.28
2023-01-30T14:57:17.368Z,99930.97
2023-01-30T15:00:16.123Z,99945.19
2023-01-30T15:02:57.882Z,99948.38
2023-01-30T15:05:44.490Z,99939.84
2023-01-30T15:08:24.691Z,99945.44
2023-01-30T15:11:28.337Z,99945.16
2023-01-30T15:14:35.495Z,99949.03
2023-01-30T15:17:46.901Z,99961.34
2023-01-30T15:21:10.154Z,99942.19
2023-01-30T15:24:37.028Z,99953.72
2023-01-30T15:27:31.716Z,99935.16
2023-01-30T15:30:17.570Z,99942.31
2023-01-30T15:32:47.747Z,99938.16
2023-01-30T15:35:19.096Z,99945.13
2023-01-30T15:37:57.344Z,99950.72
2023-01-30T15:40:29.998Z,99947.25
2023-01-30T15:44:10.506Z,99957.75
2023-01-30T15:47:25.252Z,99964.97
2023-01-30T15:50:06.994Z,99953.34
2023-01-30T15:52:49.487Z,99962.25
2023-01-30T15:55:37.664Z,99965.47
2023-01-30T15:58:19.451Z,99974.47
2023-01-30T16:01:00.094Z,99981.66
2023-01-30T16:03:42.757Z,99987.00
2023-01-30T16:06:35.907Z,99999.91
2023-01-30T16:09:25.907Z,99991.22
2023-01-30T16:11:56.274Z,99993.75
2023-01-30T16:14:26.366Z,99996.28
2023-01-30T16:17:06.969Z,100003.09
2023-01-30T16:19:39.932Z,99994.91
2023-01-30T16:22:21.824Z,100001.69
2023-01-30T16:24:55.891Z,99996.47
2023-01-30T16:27:34.529Z,100016.72
2023-01-30T16:30:09.325Z,100022.50
2023-01-30T16:32:40.199Z,100011.09
2023-01-30T16:35:27.531Z,100021.78
2023-01-30T16:38:00.258Z,100022.88
2023-01-30T16:40:52.042Z,100012.88
2023-01-30T16:43:25.070Z,100004.66
2023-01-30T16:45:55.037Z,100025.31
2023-01-30T16:48:36.865Z,100034.06
2023-01-30T16:51:36.091Z,100040.88
2023-01-30T16:54:29.385Z,100043.63
2023-01-30T16:57:03.697Z,100049.72
2023-01-30T16:59:37.968Z,100054.59
2023-01-30T17:02:41.178Z,100064.50
2023-01-30T17:05:40.946Z,100087.13
2023-01-30T17:08:54.183Z,100084.56
2023-01-30T17:11:34.574Z,100099.50
2023-01-30T17:14:31.395Z,100117.53
2023-01-30T17:17:09.939Z,100108.88
2023-01-30T17:19:39.942Z,100107.44
2023-01-30T17:22:20.717Z,100111.34
2023-01-30T17:24:51.169Z,100118.09
2023-01-30T17:27:28.693Z,100122.56
2023-01-30T17:29:58.985Z,100131.34
2023-01-30T17:32:29.203Z,100132.84
2023-01-30T17:34:59.491Z,100138.69
2023-01-30T17:37:29.518Z,100150.09
2023-01-30T17:40:00.969Z,100148.56
2023-01-30T17:42:30.924Z,100158.66
2023-01-30T17:44:59.952Z,100156.66
2023-01-30T17:47:27.835Z,100171.94
2023-01-30T17:49:55.795Z,100178.34
2023-01-30T17:52:25.269Z,100179.63
2023-01-30T17:54:53.779Z,100185.41
2023-01-30T17:57:22.547Z,100182.34
2023-01-30T17:59:50.749Z,100184.59
2023-01-30T18:02:19.120Z,100197.09
2023-01-30T18:04:47.463Z,100192.97
2023-01-30T18:07:16.769Z,100209.38
2023-01-30T18:09:44.368Z,100214.09
2023-01-30T18:12:18.114Z,100210.84
2023-01-30T18:14:47.445Z,100209.72
2023-01-30T18:17:18.403Z,100218.47
2023-01-30T18:19:47.810Z,100232.56
2023-01-30T18:22:16.286Z,100246.81
2023-01-30T18:24:44.644Z,100252.34
2023-01-30T18:27:13.341Z,100240.44
2023-01-30T18:29:41.479Z,100256.09
2023-01-30T18:32:09.938Z,100264.81
2023-01-30T18:34:38.883Z,100263.47
2023-01-30T18:37:06.819Z,100257.09
2023-01-30T18:39:36.760Z,100256.66
2023-01-30T18:42:09.951Z,100275.66
2023-01-30T18:44:38.019Z,100281.09
2023-01-30T18:47:06.391Z,100279.03
2023-01-30T18:49:34.851Z,100287.34
2023-01-30T18:52:03.357Z,100285.69
2023-01-30T18:54:31.696Z,100294.47
2023-01-30T18:57:00.120Z,100300.03
2023-01-30T18:59:28.523Z,100305.44
2023-01-30T19:01:56.900Z,100316.44
2023-01-30T19:04:25.786Z,100321.41
2023-01-30T19:06:54.880Z,100324.84
2023-01-30T19:09:24.576Z,100328.19
2023-01-30T19:12:11.806Z,100332.75
2023-01-30T19:14:40.880Z,100337.53
2023-01-30T19:17:11.051Z,100337.00
2023-01-30T19:19:42.628Z,100351.06
2023-01-30T19:22:12.865Z,100353.84
2023-01-30T19:24:42.880Z,100353.41
2023-01-30T19:27:13.922Z,100362.56
2023-01-30T19:29:44.113Z,100367.91
2023-01-30T19:32:14.145Z,100362.75
2023-01-30T19:34:45.247Z,100372.09
2023-01-30T19:37:15.253Z,100373.16
2023-01-30T19:39:45.266Z,100381.88
2023-01-30T19:42:19.475Z,100403.66
2023-01-30T19:44:49.493Z,100396.31
2023-01-30T19:47:21.969Z,100410.81
2023-01-30T19:49:52.447Z,100404.09
2023-01-30T19:52:22.529Z,100401.69
2023-01-30T19:54:52.553Z,100419.19
2023-01-30T19:57:22.636Z,100437.13
2023-01-30T19:59:52.627Z,100425.34
2023-01-30T20:02:22.690Z,100416.31
2023-01-30T20:04:52.760Z,100412.69
2023-01-30T20:07:23.759Z,100429.25
2023-01-30T20:09:54.333Z,100426.25
2023-01-30T20:12:24.793Z,100425.81
2023-01-30T20:14:54.905Z,100441.16
2023-01-30T20:17:25.088Z,100440.91
2023-01-30T20:19:55.126Z,100452.41
2023-01-30T20:22:25.365Z,100462.59
2023-01-30T20:24:55.334Z,100470.88
2023-01-30T20:27:25.351Z,100481.50
2023-01-30T20:29:55.387Z,100484.53
2023-01-30T20:32:25.436Z,100482.50
2023-01-30T20:34:55.447Z,100490.00
2023-01-30T20:37:25.928Z,100504.47
2023-01-30T20:39:56.451Z,100488.31
2023-01-30T20:42:27.767Z,100492.56
2023-01-30T20:44:57.778Z,100484.06
2023-01-30T20:47:27.758Z,100504.16
2023-01-30T20:49:56.239Z,100500.22
2023-01-30T20:52:26.420Z,100521.97
2023-01-30T20:54:55.066Z,100536.81
2023-01-30T20:57:23.328Z,100531.59
2023-01-30T20:59:51.759Z,100540.13
2023-01-30T21:02:20.372Z,100544.03
2023-01-30T21:04:48.740Z,100556.13
2023-01-30T21:07:18.614Z,100555.56
2023-01-30T21:09:48.457Z,100552.78
2023-01-30T21:12:20.012Z,100560.44
2023-01-30T21:14:51.408Z,100566.22
2023-01-30T21:17:21.401Z,100570.53
2023-01-30T21:19:51.403Z,100588.28
2023-01-30T21:22:21.445Z,100589.69
2023-01-30T21:24:51.524Z,100585.00
2023-01-30T21:27:21.567Z,100589.63
2023-01-30T21:29:51.578Z,100592.44
2023-01-30T21:32:21.595Z,100600.97
2023-01-30T21:34:51.682Z,100597.38
2023-01-30T21:37:41.947Z,100608.94
2023-01-30T21:40:30.542Z,100604.94
2023-01-30T21:43:15.706Z,100597.81
2023-01-30T21:45:45.980Z,100616.81
2023-01-30T21:48:16.058Z,100626.94
2023-01-30T21:50:46.069Z,100636.59
2023-01-30T21:53:16.690Z,100642.06
2023-01-30T21:55:52.250Z,100641.81
2023-01-30T21:58:22.238Z,100653.28
2023-01-30T22:00:52.238Z,100667.31
2023-01-30T22:03:27.653Z,100662.94
2023-01-30T22:05:57.727Z,100655.50
2023-01-30T22:08:28.454Z,100659.63
2023-01-30T22:11:11.436Z,100659.41
2023-01-30T22:13:43.628Z,100653.31
2023-01-30T22:16:20.913Z,100657.16
2023-01-30T22:19:00.516Z,100653.91
2023-01-30T22:21:37.556Z,100663.78
2023-01-30T22:24:11.315Z,100670.63
2023-01-30T22:26:41.394Z,100673.09
2023-01-30T22:29:11.604Z,100674.44
2023-01-30T22:31:41.682Z,100675.28
2023-01-30T22:34:11.858Z,100682.13
2023-01-30T22:36:41.939Z,100680.47
2023-01-30T22:39:12.014Z,100681.03
2023-01-30T22:41:42.093Z,100680.75
2023-01-30T22:44:12.202Z,100697.72
2023-01-30T22:46:41.429Z,100699.66
2023-01-30T22:49:10.815Z,100707.06
2023-01-30T22:51:43.539Z,100696.38
2023-01-30T22:54:16.408Z,100678.56
2023-01-30T22:56:48.932Z,100695.81
2023-01-30T22:59:16.962Z,100682.66
2023-01-30T23:01:50.712Z,100695.56
2023-01-30T23:04:24.064Z,100685.69
2023-01-30T23:06:54.273Z,100694.69
2023-01-30T23:09:24.501Z,100686.78
2023-01-30T23:12:16.506Z,100704.56
2023-01-30T23:14:46.635Z,100702.13
2023-01-30T23:17:35.515Z,100709.53
2023-01-30T23:20:06.529Z,100710.91
2023-01-30T23:22:36.834Z,100717.72
2023-01-30T23:25:09.236Z,100725.69
2023-01-30T23:27:39.248Z,100706.22
2023-01-30T23:30:10.761Z,100729.50
2023-01-30T23:32:41.109Z,100724.84
2023-01-30T23:35:11.145Z,100722.97
2023-01-30T23:38:00.050Z,100727.31
2023-01-30T23:40:30.109Z,100730.63
2023-01-30T23:43:00.175Z,100737.72
2023-01-30T23:45:30.504Z,100741.81
2023-01-30T23:48:01.393Z,100748.69
2023-01-30T23:50:31.837Z,100738.25
2023-01-30T23:53:02.187Z,100755.78
2023-01-30T23:55:33.367Z,100747.28
2023-01-30T23:58:03.663Z,100743.47
